sensor_id;sensor_type;location;lat;lon;timestamp;P1;durP1;ratioP1;P2;durP2;ratioP2
51714;SDS011;39115;59.332;18.034;2024-03-02T00:01:31;6.63;;;4.60;;
51714;SDS011;39115;59.332;18.034;2024-03-02T00:03:51;5.85;;;4.88;;
51714;SDS011;39115;59.332;18.034;2024-03-02T00:06:12;6.80;;;4.68;;
51714;SDS011;39115;59.332;18.034;2024-03-02T00:08:32;5.78;;;4.70;;
51714;SDS011;39115;59.332;18.034;2024-03-02T00:11:00;5.00;;;4.47;;
51714;SDS011;39115;59.332;18.034;2024-03-02T00:13:23;5.30;;;4.13;;
51714;SDS011;39115;59.332;18.034;2024-03-02T00:15:47;5.72;;;4.50;;
51714;SDS011;39115;59.332;18.034;2024-03-02T00:18:11;4.72;;;4.22;;
51714;SDS011;39115;59.332;18.034;2024-03-02T00:20:32;5.32;;;4.60;;
51714;SDS011;39115;59.332;18.034;2024-03-02T00:23:03;5.22;;;4.45;;
51714;SDS011;39115;59.332;18.034;2024-03-02T00:25:25;4.50;;;4.10;;
51714;SDS011;39115;59.332;18.034;2024-03-02T00:27:48;5.55;;;5.05;;
51714;SDS011;39115;59.332;18.034;2024-03-02T00:33:13;5.63;;;4.50;;
51714;SDS011;39115;59.332;18.034;2024-03-02T00:35:33;5.38;;;4.63;;
51714;SDS011;39115;59.332;18.034;2024-03-02T00:37:54;5.93;;;4.65;;
51714;SDS011;39115;59.332;18.034;2024-03-02T00:40:15;4.70;;;4.10;;
51714;SDS011;39115;59.332;18.034;2024-03-02T00:42:36;5.28;;;4.50;;
51714;SDS011;39115;59.332;18.034;2024-03-02T00:44:57;4.68;;;4.10;;
51714;SDS011;39115;59.332;18.034;2024-03-02T00:47:17;5.68;;;4.22;;
51714;SDS011;39115;59.332;18.034;2024-03-02T00:49:38;6.88;;;4.30;;
51714;SDS011;39115;59.332;18.034;2024-03-02T00:51:58;5.30;;;4.18;;
51714;SDS011;39115;59.332;18.034;2024-03-02T00:54:23;5.10;;;4.45;;
51714;SDS011;39115;59.332;18.034;2024-03-02T00:56:48;5.43;;;4.30;;
51714;SDS011;39115;59.332;18.034;2024-03-02T00:59:10;6.65;;;4.47;;
51714;SDS011;39115;59.332;18.034;2024-03-02T01:01:31;4.93;;;4.40;;
51714;SDS011;39115;59.332;18.034;2024-03-02T01:03:52;4.82;;;3.97;;
51714;SDS011;39115;59.332;18.034;2024-03-02T01:06:13;4.95;;;4.05;;
51714;SDS011;39115;59.332;18.034;2024-03-02T01:08:34;5.95;;;4.28;;
51714;SDS011;39115;59.332;18.034;2024-03-02T01:10:56;4.85;;;4.20;;
51714;SDS011;39115;59.332;18.034;2024-03-02T01:13:16;5.00;;;4.47;;
51714;SDS011;39115;59.332;18.034;2024-03-02T01:15:37;5.13;;;4.50;;
51714;SDS011;39115;59.332;18.034;2024-03-02T01:17:58;5.00;;;3.95;;
51714;SDS011;39115;59.332;18.034;2024-03-02T01:20:19;5.43;;;4.50;;
51714;SDS011;39115;59.332;18.034;2024-03-02T01:22:40;5.22;;;4.72;;
51714;SDS011;39115;59.332;18.034;2024-03-02T01:25:00;4.88;;;4.20;;
51714;SDS011;39115;59.332;18.034;2024-03-02T01:27:20;5.03;;;4.00;;
51714;SDS011;39115;59.332;18.034;2024-03-02T01:29:41;5.65;;;4.13;;
51714;SDS011;39115;59.332;18.034;2024-03-02T01:32:02;5.00;;;3.80;;
51714;SDS011;39115;59.332;18.034;2024-03-02T01:34:23;5.15;;;4.18;;
51714;SDS011;39115;59.332;18.034;2024-03-02T01:36:43;5.35;;;4.43;;
51714;SDS011;39115;59.332;18.034;2024-03-02T01:39:04;4.45;;;4.05;;
51714;SDS011;39115;59.332;18.034;2024-03-02T01:41:29;4.88;;;4.40;;
51714;SDS011;39115;59.332;18.034;2024-03-02T01:43:49;4.57;;;3.90;;
51714;SDS011;39115;59.332;18.034;2024-03-02T01:46:10;5.20;;;4.00;;
51714;SDS011;39115;59.332;18.034;2024-03-02T01:48:31;4.95;;;3.90;;
51714;SDS011;39115;59.332;18.034;2024-03-02T01:50:53;4.40;;;3.80;;
51714;SDS011;39115;59.332;18.034;2024-03-02T01:53:13;4.75;;;4.32;;
51714;SDS011;39115;59.332;18.034;2024-03-02T01:55:34;3.85;;;3.45;;
51714;SDS011;39115;59.332;18.034;2024-03-02T01:57:54;5.97;;;3.70;;
51714;SDS011;39115;59.332;18.034;2024-03-02T02:00:15;3.95;;;3.50;;
51714;SDS011;39115;59.332;18.034;2024-03-02T02:02:36;4.75;;;4.00;;
51714;SDS011;39115;59.332;18.034;2024-03-02T02:04:57;5.10;;;4.03;;
51714;SDS011;39115;59.332;18.034;2024-03-02T02:07:17;4.72;;;4.22;;
51714;SDS011;39115;59.332;18.034;2024-03-02T02:09:38;5.53;;;4.07;;
51714;SDS011;39115;59.332;18.034;2024-03-02T02:11:58;4.78;;;3.72;;
51714;SDS011;39115;59.332;18.034;2024-03-02T02:14:19;3.58;;;3.28;;
51714;SDS011;39115;59.332;18.034;2024-03-02T02:16:40;5.03;;;3.90;;
51714;SDS011;39115;59.332;18.034;2024-03-02T02:19:00;4.85;;;3.72;;
51714;SDS011;39115;59.332;18.034;2024-03-02T02:21:24;5.63;;;4.25;;
51714;SDS011;39115;59.332;18.034;2024-03-02T02:23:45;5.07;;;3.85;;
51714;SDS011;39115;59.332;18.034;2024-03-02T02:26:08;5.55;;;3.63;;
51714;SDS011;39115;59.332;18.034;2024-03-02T02:28:29;3.25;;;2.95;;
51714;SDS011;39115;59.332;18.034;2024-03-02T02:30:49;4.20;;;3.63;;
51714;SDS011;39115;59.332;18.034;2024-03-02T02:33:10;3.90;;;3.53;;
51714;SDS011;39115;59.332;18.034;2024-03-02T02:35:31;5.05;;;3.85;;
51714;SDS011;39115;59.332;18.034;2024-03-02T02:37:52;5.05;;;3.65;;
51714;SDS011;39115;59.332;18.034;2024-03-02T02:40:14;4.78;;;3.65;;
51714;SDS011;39115;59.332;18.034;2024-03-02T02:42:35;4.65;;;4.18;;
51714;SDS011;39115;59.332;18.034;2024-03-02T02:44:55;4.30;;;3.90;;
51714;SDS011;39115;59.332;18.034;2024-03-02T02:47:16;5.38;;;3.97;;
51714;SDS011;39115;59.332;18.034;2024-03-02T02:49:36;4.85;;;3.88;;
51714;SDS011;39115;59.332;18.034;2024-03-02T02:51:57;4.10;;;3.58;;
51714;SDS011;39115;59.332;18.034;2024-03-02T02:54:18;4.68;;;4.20;;
51714;SDS011;39115;59.332;18.034;2024-03-02T02:56:38;3.90;;;3.40;;
51714;SDS011;39115;59.332;18.034;2024-03-02T02:58:59;4.72;;;3.58;;
51714;SDS011;39115;59.332;18.034;2024-03-02T03:01:19;4.40;;;3.78;;
51714;SDS011;39115;59.332;18.034;2024-03-02T03:03:40;4.50;;;3.85;;
51714;SDS011;39115;59.332;18.034;2024-03-02T03:06:01;4.60;;;3.03;;
51714;SDS011;39115;59.332;18.034;2024-03-02T03:08:22;4.63;;;3.55;;
51714;SDS011;39115;59.332;18.034;2024-03-02T03:10:43;4.35;;;3.88;;
51714;SDS011;39115;59.332;18.034;2024-03-02T03:13:04;3.67;;;3.20;;
51714;SDS011;39115;59.332;18.034;2024-03-02T03:15:28;5.22;;;3.72;;
51714;SDS011;39115;59.332;18.034;2024-03-02T03:17:48;3.40;;;3.00;;
51714;SDS011;39115;59.332;18.034;2024-03-02T03:20:09;3.58;;;3.20;;
51714;SDS011;39115;59.332;18.034;2024-03-02T03:22:30;3.80;;;3.45;;
51714;SDS011;39115;59.332;18.034;2024-03-02T03:24:52;4.68;;;3.58;;
51714;SDS011;39115;59.332;18.034;2024-03-02T03:27:12;3.97;;;3.30;;
51714;SDS011;39115;59.332;18.034;2024-03-02T03:29:33;4.07;;;3.22;;
51714;SDS011;39115;59.332;18.034;2024-03-02T03:31:53;4.55;;;3.40;;
51714;SDS011;39115;59.332;18.034;2024-03-02T03:34:14;3.75;;;3.30;;
51714;SDS011;39115;59.332;18.034;2024-03-02T03:36:35;4.15;;;3.58;;
51714;SDS011;39115;59.332;18.034;2024-03-02T03:38:57;4.50;;;3.22;;
51714;SDS011;39115;59.332;18.034;2024-03-02T03:41:17;5.10;;;3.35;;
51714;SDS011;39115;59.332;18.034;2024-03-02T03:43:38;3.28;;;2.78;;
51714;SDS011;39115;59.332;18.034;2024-03-02T03:45:58;3.75;;;2.83;;
51714;SDS011;39115;59.332;18.034;2024-03-02T03:48:19;4.28;;;3.47;;
51714;SDS011;39115;59.332;18.034;2024-03-02T03:50:39;4.03;;;3.30;;
51714;SDS011;39115;59.332;18.034;2024-03-02T03:53:00;4.13;;;3.35;;
51714;SDS011;39115;59.332;18.034;2024-03-02T03:55:21;4.68;;;3.50;;
51714;SDS011;39115;59.332;18.034;2024-03-02T03:57:41;4.13;;;3.50;;
51714;SDS011;39115;59.332;18.034;2024-03-02T04:00:03;4.60;;;3.47;;
51714;SDS011;39115;59.332;18.034;2024-03-02T04:02:24;3.78;;;3.38;;
51714;SDS011;39115;59.332;18.034;2024-03-02T04:04:45;3.38;;;3.03;;
51714;SDS011;39115;59.332;18.034;2024-03-02T04:07:06;6.10;;;4.50;;
51714;SDS011;39115;59.332;18.034;2024-03-02T04:09:26;4.13;;;3.08;;
51714;SDS011;39115;59.332;18.034;2024-03-02T04:11:47;3.92;;;3.10;;
51714;SDS011;39115;59.332;18.034;2024-03-02T04:14:08;3.17;;;2.90;;
51714;SDS011;39115;59.332;18.034;2024-03-02T04:16:29;3.97;;;3.42;;
51714;SDS011;39115;59.332;18.034;2024-03-02T04:18:50;3.60;;;3.30;;
51714;SDS011;39115;59.332;18.034;2024-03-02T04:21:11;4.57;;;3.55;;
51714;SDS011;39115;59.332;18.034;2024-03-02T04:23:31;4.07;;;2.72;;
51714;SDS011;39115;59.332;18.034;2024-03-02T04:25:52;4.03;;;3.25;;
51714;SDS011;39115;59.332;18.034;2024-03-02T04:28:13;3.35;;;2.72;;
51714;SDS011;39115;59.332;18.034;2024-03-02T04:30:33;3.90;;;3.38;;
51714;SDS011;39115;59.332;18.034;2024-03-02T04:32:54;3.05;;;2.85;;
51714;SDS011;39115;59.332;18.034;2024-03-02T04:35:14;4.70;;;3.53;;
51714;SDS011;39115;59.332;18.034;2024-03-02T04:37:35;3.50;;;3.00;;
51714;SDS011;39115;59.332;18.034;2024-03-02T04:39:55;2.85;;;2.65;;
51714;SDS011;39115;59.332;18.034;2024-03-02T04:42:15;4.75;;;3.03;;
51714;SDS011;39115;59.332;18.034;2024-03-02T04:44:36;4.70;;;2.97;;
51714;SDS011;39115;59.332;18.034;2024-03-02T04:46:58;3.53;;;3.13;;
51714;SDS011;39115;59.332;18.034;2024-03-02T04:49:19;4.53;;;3.28;;
51714;SDS011;39115;59.332;18.034;2024-03-02T04:51:39;3.28;;;2.97;;
51714;SDS011;39115;59.332;18.034;2024-03-02T04:54:00;4.32;;;3.70;;
51714;SDS011;39115;59.332;18.034;2024-03-02T04:56:20;3.60;;;3.30;;
51714;SDS011;39115;59.332;18.034;2024-03-02T04:58:46;3.65;;;2.90;;
51714;SDS011;39115;59.332;18.034;2024-03-02T05:01:07;3.55;;;3.17;;
51714;SDS011;39115;59.332;18.034;2024-03-02T05:03:28;3.63;;;2.75;;
51714;SDS011;39115;59.332;18.034;2024-03-02T05:05:48;3.65;;;3.15;;
51714;SDS011;39115;59.332;18.034;2024-03-02T05:08:09;3.65;;;3.05;;
51714;SDS011;39115;59.332;18.034;2024-03-02T05:10:32;5.40;;;3.47;;
51714;SDS011;39115;59.332;18.034;2024-03-02T05:12:52;3.45;;;2.80;;
51714;SDS011;39115;59.332;18.034;2024-03-02T05:15:17;4.17;;;3.20;;
51714;SDS011;39115;59.332;18.034;2024-03-02T05:17:38;2.63;;;2.42;;
51714;SDS011;39115;59.332;18.034;2024-03-02T05:19:59;4.50;;;2.83;;
51714;SDS011;39115;59.332;18.034;2024-03-02T05:22:20;3.05;;;2.75;;
51714;SDS011;39115;59.332;18.034;2024-03-02T05:24:40;3.83;;;2.55;;
51714;SDS011;39115;59.332;18.034;2024-03-02T05:27:01;4.70;;;3.38;;
51714;SDS011;39115;59.332;18.034;2024-03-02T05:29:21;4.25;;;3.22;;
51714;SDS011;39115;59.332;18.034;2024-03-02T05:31:42;2.85;;;2.65;;
51714;SDS011;39115;59.332;18.034;2024-03-02T05:34:02;2.97;;;2.65;;
51714;SDS011;39115;59.332;18.034;2024-03-02T05:36:23;3.45;;;2.70;;
51714;SDS011;39115;59.332;18.034;2024-03-02T05:38:44;3.13;;;2.83;;
51714;SDS011;39115;59.332;18.034;2024-03-02T05:41:04;4.07;;;2.63;;
51714;SDS011;39115;59.332;18.034;2024-03-02T05:43:25;3.33;;;2.83;;
51714;SDS011;39115;59.332;18.034;2024-03-02T05:45:46;3.28;;;2.97;;
51714;SDS011;39115;59.332;18.034;2024-03-02T05:48:07;3.50;;;2.90;;
51714;SDS011;39115;59.332;18.034;2024-03-02T05:50:28;3.50;;;3.15;;
51714;SDS011;39115;59.332;18.034;2024-03-02T05:52:48;3.97;;;3.15;;
51714;SDS011;39115;59.332;18.034;2024-03-02T05:55:09;3.28;;;2.90;;
51714;SDS011;39115;59.332;18.034;2024-03-02T05:57:29;3.03;;;2.35;;
51714;SDS011;39115;59.332;18.034;2024-03-02T06:00:09;3.63;;;3.28;;
51714;SDS011;39115;59.332;18.034;2024-03-02T06:02:31;2.85;;;2.55;;
51714;SDS011;39115;59.332;18.034;2024-03-02T06:04:53;4.97;;;3.17;;
51714;SDS011;39115;59.332;18.034;2024-03-02T06:07:15;4.18;;;2.42;;
51714;SDS011;39115;59.332;18.034;2024-03-02T06:09:35;3.28;;;2.58;;
51714;SDS011;39115;59.332;18.034;2024-03-02T06:11:55;4.05;;;3.22;;
51714;SDS011;39115;59.332;18.034;2024-03-02T06:14:16;3.83;;;2.88;;
51714;SDS011;39115;59.332;18.034;2024-03-02T06:16:37;3.58;;;2.85;;
51714;SDS011;39115;59.332;18.034;2024-03-02T06:18:57;4.47;;;3.20;;
51714;SDS011;39115;59.332;18.034;2024-03-02T06:21:18;5.18;;;3.42;;
51714;SDS011;39115;59.332;18.034;2024-03-02T06:23:38;4.15;;;2.90;;
51714;SDS011;39115;59.332;18.034;2024-03-02T06:25:59;4.28;;;3.33;;
51714;SDS011;39115;59.332;18.034;2024-03-02T06:28:19;4.82;;;3.40;;
51714;SDS011;39115;59.332;18.034;2024-03-02T06:30:41;3.47;;;3.05;;
51714;SDS011;39115;59.332;18.034;2024-03-02T06:33:02;4.50;;;3.03;;
51714;SDS011;39115;59.332;18.034;2024-03-02T06:35:24;2.85;;;2.63;;
51714;SDS011;39115;59.332;18.034;2024-03-02T06:37:44;4.63;;;3.17;;
51714;SDS011;39115;59.332;18.034;2024-03-02T06:40:05;3.55;;;3.05;;
51714;SDS011;39115;59.332;18.034;2024-03-02T06:42:27;4.45;;;3.00;;
51714;SDS011;39115;59.332;18.034;2024-03-02T06:44:53;3.80;;;2.70;;
51714;SDS011;39115;59.332;18.034;2024-03-02T06:47:14;3.17;;;2.72;;
51714;SDS011;39115;59.332;18.034;2024-03-02T06:49:36;4.70;;;3.53;;
51714;SDS011;39115;59.332;18.034;2024-03-02T06:51:57;3.25;;;2.88;;
51714;SDS011;39115;59.332;18.034;2024-03-02T06:54:17;3.83;;;3.28;;
51714;SDS011;39115;59.332;18.034;2024-03-02T06:56:38;3.60;;;2.90;;
51714;SDS011;39115;59.332;18.034;2024-03-02T06:58:59;3.65;;;3.30;;
51714;SDS011;39115;59.332;18.034;2024-03-02T07:01:19;3.65;;;3.13;;
51714;SDS011;39115;59.332;18.034;2024-03-02T07:03:40;4.28;;;3.13;;
51714;SDS011;39115;59.332;18.034;2024-03-02T07:06:00;4.47;;;2.95;;
51714;SDS011;39115;59.332;18.034;2024-03-02T07:08:21;3.67;;;3.10;;
51714;SDS011;39115;59.332;18.034;2024-03-02T07:10:41;3.67;;;2.97;;
51714;SDS011;39115;59.332;18.034;2024-03-02T07:13:02;3.78;;;2.95;;
51714;SDS011;39115;59.332;18.034;2024-03-02T07:15:23;3.38;;;2.70;;
51714;SDS011;39115;59.332;18.034;2024-03-02T07:18:01;3.70;;;2.95;;
51714;SDS011;39115;59.332;18.034;2024-03-02T07:20:22;4.28;;;3.35;;
51714;SDS011;39115;59.332;18.034;2024-03-02T07:22:42;4.00;;;2.50;;
51714;SDS011;39115;59.332;18.034;2024-03-02T07:25:03;3.85;;;2.95;;
51714;SDS011;39115;59.332;18.034;2024-03-02T07:27:24;4.05;;;3.20;;
51714;SDS011;39115;59.332;18.034;2024-03-02T07:29:45;3.88;;;3.15;;
51714;SDS011;39115;59.332;18.034;2024-03-02T07:32:05;2.92;;;2.42;;
51714;SDS011;39115;59.332;18.034;2024-03-02T07:34:29;3.60;;;2.90;;
51714;SDS011;39115;59.332;18.034;2024-03-02T07:36:49;3.38;;;2.65;;
51714;SDS011;39115;59.332;18.034;2024-03-02T07:39:10;4.03;;;3.10;;
51714;SDS011;39115;59.332;18.034;2024-03-02T07:41:30;5.00;;;3.28;;
51714;SDS011;39115;59.332;18.034;2024-03-02T07:43:51;3.30;;;3.00;;
51714;SDS011;39115;59.332;18.034;2024-03-02T07:46:11;4.60;;;3.50;;
51714;SDS011;39115;59.332;18.034;2024-03-02T07:48:32;3.67;;;3.03;;
51714;SDS011;39115;59.332;18.034;2024-03-02T07:50:52;4.05;;;3.38;;
51714;SDS011;39115;59.332;18.034;2024-03-02T07:53:13;3.70;;;2.80;;
51714;SDS011;39115;59.332;18.034;2024-03-02T07:55:34;3.88;;;3.42;;
51714;SDS011;39115;59.332;18.034;2024-03-02T07:57:55;3.90;;;2.97;;
51714;SDS011;39115;59.332;18.034;2024-03-02T08:00:16;3.45;;;2.72;;
51714;SDS011;39115;59.332;18.034;2024-03-02T08:02:37;4.82;;;3.05;;
51714;SDS011;39115;59.332;18.034;2024-03-02T08:04:57;2.75;;;2.50;;
51714;SDS011;39115;59.332;18.034;2024-03-02T08:07:18;2.60;;;2.40;;
51714;SDS011;39115;59.332;18.034;2024-03-02T08:09:38;4.15;;;3.45;;
51714;SDS011;39115;59.332;18.034;2024-03-02T08:11:59;4.03;;;3.08;;
51714;SDS011;39115;59.332;18.034;2024-03-02T08:14:19;3.45;;;2.88;;
51714;SDS011;39115;59.332;18.034;2024-03-02T08:16:40;5.13;;;3.28;;
51714;SDS011;39115;59.332;18.034;2024-03-02T08:19:01;3.03;;;2.72;;
51714;SDS011;39115;59.332;18.034;2024-03-02T08:21:23;4.72;;;3.65;;
51714;SDS011;39115;59.332;18.034;2024-03-02T08:23:44;3.35;;;2.72;;
51714;SDS011;39115;59.332;18.034;2024-03-02T08:26:05;3.47;;;3.03;;
51714;SDS011;39115;59.332;18.034;2024-03-02T08:28:26;3.67;;;3.33;;
51714;SDS011;39115;59.332;18.034;2024-03-02T08:30:47;4.38;;;3.00;;
51714;SDS011;39115;59.332;18.034;2024-03-02T08:33:07;4.72;;;3.08;;
51714;SDS011;39115;59.332;18.034;2024-03-02T08:35:28;3.95;;;3.30;;
51714;SDS011;39115;59.332;18.034;2024-03-02T08:37:48;3.88;;;3.30;;
51714;SDS011;39115;59.332;18.034;2024-03-02T08:40:09;5.43;;;3.60;;
51714;SDS011;39115;59.332;18.034;2024-03-02T08:42:30;3.83;;;3.38;;
51714;SDS011;39115;59.332;18.034;2024-03-02T08:44:51;3.25;;;2.95;;
51714;SDS011;39115;59.332;18.034;2024-03-02T08:47:12;4.13;;;3.03;;
51714;SDS011;39115;59.332;18.034;2024-03-02T08:49:32;3.47;;;3.17;;
51714;SDS011;39115;59.332;18.034;2024-03-02T08:51:53;4.43;;;3.20;;
51714;SDS011;39115;59.332;18.034;2024-03-02T08:54:17;4.25;;;3.03;;
51714;SDS011;39115;59.332;18.034;2024-03-02T08:56:37;4.72;;;3.35;;
51714;SDS011;39115;59.332;18.034;2024-03-02T08:58:58;3.92;;;2.92;;
51714;SDS011;39115;59.332;18.034;2024-03-02T09:01:18;3.88;;;3.47;;
51714;SDS011;39115;59.332;18.034;2024-03-02T09:03:42;3.20;;;2.80;;
51714;SDS011;39115;59.332;18.034;2024-03-02T09:06:05;3.63;;;3.22;;
51714;SDS011;39115;59.332;18.034;2024-03-02T09:08:26;4.05;;;2.92;;
51714;SDS011;39115;59.332;18.034;2024-03-02T09:10:47;3.47;;;3.17;;
51714;SDS011;39115;59.332;18.034;2024-03-02T09:13:07;4.32;;;3.05;;
51714;SDS011;39115;59.332;18.034;2024-03-02T09:15:28;4.35;;;3.70;;
51714;SDS011;39115;59.332;18.034;2024-03-02T09:17:48;4.15;;;3.53;;
51714;SDS011;39115;59.332;18.034;2024-03-02T09:20:09;4.78;;;3.35;;
51714;SDS011;39115;59.332;18.034;2024-03-02T09:22:30;4.32;;;3.30;;
51714;SDS011;39115;59.332;18.034;2024-03-02T09:24:50;4.70;;;3.28;;
51714;SDS011;39115;59.332;18.034;2024-03-02T09:27:11;4.63;;;3.85;;
51714;SDS011;39115;59.332;18.034;2024-03-02T09:29:31;4.65;;;3.45;;
51714;SDS011;39115;59.332;18.034;2024-03-02T09:31:52;3.92;;;3.50;;
51714;SDS011;39115;59.332;18.034;2024-03-02T09:34:12;4.25;;;3.15;;
51714;SDS011;39115;59.332;18.034;2024-03-02T09:36:34;3.65;;;3.13;;
51714;SDS011;39115;59.332;18.034;2024-03-02T09:38:55;3.45;;;3.13;;
51714;SDS011;39115;59.332;18.034;2024-03-02T09:41:15;4.25;;;3.00;;
51714;SDS011;39115;59.332;18.034;2024-03-02T09:43:36;4.75;;;3.17;;
51714;SDS011;39115;59.332;18.034;2024-03-02T09:45:57;4.25;;;3.60;;
51714;SDS011;39115;59.332;18.034;2024-03-02T09:48:18;5.13;;;4.15;;
51714;SDS011;39115;59.332;18.034;2024-03-02T09:50:40;4.05;;;3.38;;
51714;SDS011;39115;59.332;18.034;2024-03-02T09:53:01;5.25;;;3.55;;
51714;SDS011;39115;59.332;18.034;2024-03-02T09:55:25;3.42;;;3.13;;
51714;SDS011;39115;59.332;18.034;2024-03-02T09:57:46;4.35;;;3.72;;
51714;SDS011;39115;59.332;18.034;2024-03-02T10:00:08;4.88;;;3.70;;
51714;SDS011;39115;59.332;18.034;2024-03-02T10:02:34;4.43;;;3.42;;
51714;SDS011;39115;59.332;18.034;2024-03-02T10:04:55;5.55;;;3.80;;
51714;SDS011;39115;59.332;18.034;2024-03-02T10:07:16;4.20;;;3.67;;
51714;SDS011;39115;59.332;18.034;2024-03-02T10:09:37;5.65;;;3.45;;
51714;SDS011;39115;59.332;18.034;2024-03-02T10:12:03;5.05;;;3.97;;
51714;SDS011;39115;59.332;18.034;2024-03-02T10:14:25;3.58;;;3.15;;
51714;SDS011;39115;59.332;18.034;2024-03-02T10:16:45;5.15;;;3.58;;
51714;SDS011;39115;59.332;18.034;2024-03-02T10:19:14;3.83;;;3.42;;
51714;SDS011;39115;59.332;18.034;2024-03-02T10:21:39;5.68;;;3.90;;
51714;SDS011;39115;59.332;18.034;2024-03-02T10:24:09;4.15;;;3.75;;
51714;SDS011;39115;59.332;18.034;2024-03-02T10:26:30;3.95;;;3.42;;
51714;SDS011;39115;59.332;18.034;2024-03-02T10:28:51;5.03;;;3.70;;
51714;SDS011;39115;59.332;18.034;2024-03-02T10:31:19;5.75;;;4.40;;
51714;SDS011;39115;59.332;18.034;2024-03-02T10:33:40;4.18;;;2.85;;
51714;SDS011;39115;59.332;18.034;2024-03-02T10:36:00;5.65;;;4.25;;
51714;SDS011;39115;59.332;18.034;2024-03-02T10:38:22;4.88;;;3.50;;
51714;SDS011;39115;59.332;18.034;2024-03-02T10:40:46;4.57;;;3.67;;
51714;SDS011;39115;59.332;18.034;2024-03-02T10:43:07;4.15;;;3.75;;
51714;SDS011;39115;59.332;18.034;2024-03-02T10:45:29;5.40;;;3.88;;
51714;SDS011;39115;59.332;18.034;2024-03-02T10:47:50;5.47;;;4.20;;
51714;SDS011;39115;59.332;18.034;2024-03-02T10:50:11;5.15;;;4.05;;
51714;SDS011;39115;59.332;18.034;2024-03-02T10:52:31;4.40;;;3.38;;
51714;SDS011;39115;59.332;18.034;2024-03-02T10:54:52;5.05;;;3.85;;
51714;SDS011;39115;59.332;18.034;2024-03-02T10:57:12;4.85;;;3.90;;
51714;SDS011;39115;59.332;18.034;2024-03-02T10:59:37;4.70;;;3.88;;
51714;SDS011;39115;59.332;18.034;2024-03-02T11:02:06;4.82;;;4.18;;
51714;SDS011;39115;59.332;18.034;2024-03-02T11:04:32;5.03;;;4.07;;
51714;SDS011;39115;59.332;18.034;2024-03-02T11:06:56;6.47;;;3.95;;
51714;SDS011;39115;59.332;18.034;2024-03-02T11:09:24;4.80;;;4.10;;
51714;SDS011;39115;59.332;18.034;2024-03-02T11:12:06;5.78;;;3.83;;
51714;SDS011;39115;59.332;18.034;2024-03-02T11:14:32;4.35;;;3.92;;
51714;SDS011;39115;59.332;18.034;2024-03-02T11:16:54;4.53;;;3.80;;
51714;SDS011;39115;59.332;18.034;2024-03-02T11:19:15;4.55;;;3.90;;
51714;SDS011;39115;59.332;18.034;2024-03-02T11:21:36;3.92;;;3.53;;
51714;SDS011;39115;59.332;18.034;2024-03-02T11:23:58;4.40;;;3.88;;
51714;SDS011;39115;59.332;18.034;2024-03-02T11:26:21;4.57;;;3.75;;
51714;SDS011;39115;59.332;18.034;2024-03-02T11:28:44;5.57;;;3.65;;
51714;SDS011;39115;59.332;18.034;2024-03-02T11:31:05;4.43;;;3.78;;
51714;SDS011;39115;59.332;18.034;2024-03-02T11:33:26;5.03;;;3.95;;
51714;SDS011;39115;59.332;18.034;2024-03-02T11:35:49;4.25;;;3.35;;
51714;SDS011;39115;59.332;18.034;2024-03-02T11:38:10;5.57;;;4.10;;
51714;SDS011;39115;59.332;18.034;2024-03-02T11:40:30;4.32;;;3.63;;
51714;SDS011;39115;59.332;18.034;2024-03-02T11:42:52;5.25;;;4.30;;
51714;SDS011;39115;59.332;18.034;2024-03-02T11:45:16;4.50;;;4.05;;
51714;SDS011;39115;59.332;18.034;2024-03-02T11:47:37;5.65;;;3.60;;
51714;SDS011;39115;59.332;18.034;2024-03-02T11:49:58;4.95;;;4.05;;
51714;SDS011;39115;59.332;18.034;2024-03-02T11:52:19;5.95;;;3.97;;
51714;SDS011;39115;59.332;18.034;2024-03-02T11:54:40;5.93;;;4.05;;
51714;SDS011;39115;59.332;18.034;2024-03-02T11:57:12;6.60;;;4.18;;
51714;SDS011;39115;59.332;18.034;2024-03-02T11:59:36;4.47;;;3.70;;
51714;SDS011;39115;59.332;18.034;2024-03-02T12:01:57;5.22;;;4.07;;
51714;SDS011;39115;59.332;18.034;2024-03-02T12:04:18;4.72;;;3.90;;
51714;SDS011;39115;59.332;18.034;2024-03-02T12:06:39;5.35;;;3.80;;
51714;SDS011;39115;59.332;18.034;2024-03-02T12:09:03;6.53;;;4.40;;
51714;SDS011;39115;59.332;18.034;2024-03-02T12:11:23;4.90;;;3.63;;
51714;SDS011;39115;59.332;18.034;2024-03-02T12:13:51;4.57;;;3.88;;
51714;SDS011;39115;59.332;18.034;2024-03-02T12:16:22;5.40;;;4.25;;
51714;SDS011;39115;59.332;18.034;2024-03-02T12:18:44;4.65;;;3.85;;
51714;SDS011;39115;59.332;18.034;2024-03-02T12:21:04;5.05;;;4.13;;
51714;SDS011;39115;59.332;18.034;2024-03-02T12:23:28;5.38;;;4.15;;
51714;SDS011;39115;59.332;18.034;2024-03-02T12:25:49;4.28;;;3.88;;
51714;SDS011;39115;59.332;18.034;2024-03-02T12:28:10;5.47;;;4.35;;
51714;SDS011;39115;59.332;18.034;2024-03-02T12:30:32;5.57;;;4.65;;
51714;SDS011;39115;59.332;18.034;2024-03-02T12:32:56;4.93;;;4.15;;
51714;SDS011;39115;59.332;18.034;2024-03-02T12:35:17;4.57;;;4.15;;
51714;SDS011;39115;59.332;18.034;2024-03-02T12:37:48;6.47;;;4.22;;
51714;SDS011;39115;59.332;18.034;2024-03-02T12:40:13;5.03;;;3.92;;
51714;SDS011;39115;59.332;18.034;2024-03-02T12:42:34;5.95;;;4.57;;
51714;SDS011;39115;59.332;18.034;2024-03-02T12:44:55;5.32;;;4.10;;
51714;SDS011;39115;59.332;18.034;2024-03-02T12:47:16;4.65;;;3.83;;
51714;SDS011;39115;59.332;18.034;2024-03-02T12:49:36;5.07;;;4.40;;
51714;SDS011;39115;59.332;18.034;2024-03-02T12:51:57;7.88;;;4.60;;
51714;SDS011;39115;59.332;18.034;2024-03-02T12:54:18;6.18;;;4.22;;
51714;SDS011;39115;59.332;18.034;2024-03-02T12:56:38;5.00;;;4.32;;
51714;SDS011;39115;59.332;18.034;2024-03-02T12:59:05;5.82;;;4.38;;
51714;SDS011;39115;59.332;18.034;2024-03-02T13:01:26;6.03;;;4.32;;
51714;SDS011;39115;59.332;18.034;2024-03-02T13:03:50;4.95;;;3.65;;
51714;SDS011;39115;59.332;18.034;2024-03-02T13:06:17;5.53;;;4.30;;
51714;SDS011;39115;59.332;18.034;2024-03-02T13:08:38;5.15;;;3.83;;
51714;SDS011;39115;59.332;18.034;2024-03-02T13:10:58;5.15;;;3.80;;
51714;SDS011;39115;59.332;18.034;2024-03-02T13:13:19;5.97;;;4.38;;
51714;SDS011;39115;59.332;18.034;2024-03-02T13:15:40;5.90;;;4.72;;
51714;SDS011;39115;59.332;18.034;2024-03-02T13:18:00;4.18;;;3.47;;
51714;SDS011;39115;59.332;18.034;2024-03-02T13:20:21;5.78;;;3.90;;
51714;SDS011;39115;59.332;18.034;2024-03-02T13:22:41;4.57;;;4.10;;
51714;SDS011;39115;59.332;18.034;2024-03-02T13:25:03;5.82;;;4.18;;
51714;SDS011;39115;59.332;18.034;2024-03-02T13:27:24;5.05;;;4.30;;
51714;SDS011;39115;59.332;18.034;2024-03-02T13:29:45;4.88;;;3.88;;
51714;SDS011;39115;59.332;18.034;2024-03-02T13:32:07;4.82;;;4.13;;
51714;SDS011;39115;59.332;18.034;2024-03-02T13:34:29;5.70;;;4.45;;
51714;SDS011;39115;59.332;18.034;2024-03-02T13:36:50;5.78;;;3.92;;
51714;SDS011;39115;59.332;18.034;2024-03-02T13:39:10;4.60;;;4.00;;
51714;SDS011;39115;59.332;18.034;2024-03-02T13:41:31;5.47;;;4.30;;
51714;SDS011;39115;59.332;18.034;2024-03-02T13:43:52;5.00;;;4.45;;
51714;SDS011;39115;59.332;18.034;2024-03-02T13:46:13;4.32;;;3.90;;
51714;SDS011;39115;59.332;18.034;2024-03-02T13:48:33;5.57;;;4.20;;
51714;SDS011;39115;59.332;18.034;2024-03-02T13:50:54;4.63;;;3.58;;
51714;SDS011;39115;59.332;18.034;2024-03-02T13:53:14;4.00;;;3.60;;
51714;SDS011;39115;59.332;18.034;2024-03-02T13:55:35;4.80;;;4.25;;
51714;SDS011;39115;59.332;18.034;2024-03-02T13:57:55;5.13;;;4.13;;
51714;SDS011;39115;59.332;18.034;2024-03-02T14:00:16;5.85;;;4.47;;
51714;SDS011;39115;59.332;18.034;2024-03-02T14:02:38;5.40;;;4.03;;